Terminal Aerodrome Forecast
Issued by NWS

Home | Current Version | Previous Version | Text Only | Print | Product List | Glossary On
Versions: 1 2 3 4 5 6 7 8 9 10 11 12 13 14 15 16 17 18 19 20 21 22 23
000
FTUS43 KDTX 271125
TAFDET
TAF
KDET 271125Z 2712/2812 22007KT P6SM SCT250
     FM271900 18005KT P6SM SCT045
     FM272200 14005KT P6SM BKN045
     FM280700 12003KT 5SM BR SCT045 BKN100=

USA.gov is the U.S. government's official web portal to all federal, state and local government web resources and services.